MKJSMKJP

Guest
Details From MKJS - Sangster Intl
To MKJP - Norman Manley Intl
Flight Number -
Tags generated
Created
Modified
Stats Distance 73 nm / 135 km
Max Altitude 7,800 ft / 2,377 m
Waypoints 3
Social Downloads 2
Likes 0
Share VATSIM

Download

Looking for another format? Having issues loading an existing format? Contact us
Advertisement - Login to hide

Notes

Basic altitude profile: - Ascent Rate: 2500ft/min - Ascent Speed: 250kts - Cruise Altitude: 35000ft - Cruise Speed: 420kts - Descent Rate: 1500ft/min - Descent Speed: 250kts Options: - Use NATs: no - Use PACOTS: no - Use low airways: yes - Use high airways: no

Route

MKJS KEMBO MKJP

ID Type Via Altitude Latitude Longitude Leg Dist Tot Dist Heading (true) Name
O MKJS APT - 0 ft / 0 m 18.50355˚ -77.91370˚ - 0 nm - Sangster Intl
KEMBO FIX - 7,800 ft / 2,377 m 18.21889˚ -77.35472˚ 36 nm 36 nm 118° / 118° -
O MKJP APT - 0 ft / 0 m 17.93567˚ -76.78756˚ 36 nm 72 nm 118° / 118° Norman Manley Intl

Altitude Profile

Advertisement - Login to hide

MKJS

Details ICAO MKJS (MBJ)
Name Sangster Intl
Region Jamaica
Timezone America/Jamaica (UTC-5.0)
Stats Elevation 6 ft / 2 m (AMSL)
Location 18.503549° -77.913698°
Runways 1
Magnetic Variation 6.957° W

METAR

MKJS 181300Z 09014KT 9999 SCT024 27/22 Q1017

Decode

TAF

TAF MKJS 181115Z 1812/1912 09020KT 9999 SCT022 BECMG 1900/1902 13008KT

Decode

Departure Runways

ID Width Length Bearing (true) Bearing (mag) Surface Threshold Offset Overrun Length
07 161 ft / 49 m 8,495 ft / 2,589 m 65.37° 72.33° Asphalt 220 ft / 67 m 312 ft / 95 m
25 161 ft / 49 m 8,495 ft / 2,589 m 245.37° 252.33° Asphalt 577 ft / 176 m 200 ft / 61 m

MKJP

Details ICAO MKJP (KIN)
Name Norman Manley Intl
Region Jamaica
Timezone Unknown (UTC+0.0)
Stats Elevation 10 ft / 3 m (AMSL)
Location 17.935665° -76.787560°
Runways 1
Magnetic Variation 7.542° W

METAR

MKJP 181300Z 32004KT 9999 FEW024 27/23 Q1016

Decode

TAF

TAF MKJP 181115Z 1812/1912 32005KT 9999 FEW024 BECMG 1814/1816 14010KT FEW022 BECMG 1903/1905 35005KT

Decode

Destination Runways

ID Width Length Bearing (true) Bearing (mag) Surface Threshold Offset Overrun Length
12 150 ft / 46 m 8,912 ft / 2,717 m 112.09° 119.63° Asphalt 0 ft / 0 m 0 ft / 0 m
30 150 ft / 46 m 8,912 ft / 2,717 m 292.10° 299.64° Asphalt 0 ft / 0 m 0 ft / 0 m

Approach Navaids

Runway Type Ident Frequency Range Bearing (true) Bearing (mag) Slope Elevation
12 Localiser IMLY 109.10 MHz 18 nm / 33 km 115.09° 122.64° - 10 ft / 3 m (AMSL)
12 Glidescope IMLY 109.10 MHz 10 nm / 19 km 115.09° 122.64° 3.00° 8 ft / 2 m (AMSL)

Popular Alternatives